createdAt,value
2022-09-15T00:01:39.078Z,13.43
2022-09-15T00:04:30.136Z,19.77
2022-09-15T00:07:23.317Z,18.65
2022-09-15T00:10:13.860Z,17.48
2022-09-15T00:13:04.334Z,16.08
2022-09-15T00:15:56.481Z,41.85
2022-09-15T00:18:47.668Z,14.07
2022-09-15T00:21:41.500Z,13.90
2022-09-15T00:24:32.052Z,19.60
2022-09-15T00:27:22.410Z,14.93
2022-09-15T00:30:15.769Z,11.68
2022-09-15T00:33:08.795Z,16.40
2022-09-15T00:36:02.780Z,16.20
2022-09-15T00:38:54.496Z,13.80
2022-09-15T00:41:45.513Z,11.80
2022-09-15T00:44:39.809Z,12.48
2022-09-15T00:47:37.808Z,13.70
2022-09-15T00:50:28.619Z,12.73
2022-09-15T00:53:21.064Z,14.60
2022-09-15T00:56:13.850Z,17.35
2022-09-15T00:59:08.664Z,21.05
2022-09-15T01:02:18.923Z,19.45
2022-09-15T01:05:15.363Z,13.77
2022-09-15T01:08:13.338Z,16.13
2022-09-15T01:11:04.250Z,16.20
2022-09-15T01:13:55.857Z,15.65
2022-09-15T01:17:01.970Z,18.02
2022-09-15T01:20:16.209Z,16.17
2022-09-15T01:23:43.477Z,15.27
2022-09-15T01:27:06.569Z,18.65
2022-09-15T01:30:10.960Z,15.43
2022-09-15T01:33:48.814Z,17.60
2022-09-15T01:36:48.211Z,13.35
2022-09-15T01:39:42.401Z,11.15
2022-09-15T01:42:34.133Z,13.18
2022-09-15T01:45:33.500Z,12.25
2022-09-15T01:48:28.976Z,12.75
2022-09-15T01:51:19.190Z,13.50
2022-09-15T01:54:10.656Z,17.17
2022-09-15T01:57:01.447Z,24.98
2022-09-15T01:59:52.427Z,21.88
2022-09-15T02:03:00.463Z,23.83
2022-09-15T02:06:06.974Z,19.50
2022-09-15T02:09:09.394Z,17.55
2022-09-15T02:12:22.136Z,12.52
2022-09-15T02:15:17.868Z,20.25
2022-09-15T02:18:10.763Z,10.18
2022-09-15T02:21:09.600Z,12.93
2022-09-15T02:24:06.711Z,11.23
2022-09-15T02:26:58.957Z,11.98
2022-09-15T02:29:49.779Z,15.20
2022-09-15T02:32:44.366Z,10.35
2022-09-15T02:35:39.298Z,12.70
2022-09-15T02:38:37.884Z,13.23
2022-09-15T02:41:31.927Z,15.40
2022-09-15T02:44:22.363Z,13.23
2022-09-15T02:47:13.728Z,14.40
2022-09-15T02:50:05.128Z,13.50
2022-09-15T02:52:58.662Z,15.70
2022-09-15T02:55:51.098Z,18.70
2022-09-15T02:58:42.393Z,18.80
2022-09-15T03:01:37.518Z,13.23
2022-09-15T03:04:27.902Z,13.88
2022-09-15T03:07:24.702Z,13.60
2022-09-15T03:10:16.113Z,13.30
2022-09-15T03:13:07.876Z,14.05
2022-09-15T03:15:58.106Z,12.05
2022-09-15T03:18:48.319Z,8.57
2022-09-15T03:21:40.333Z,8.10
2022-09-15T03:24:30.856Z,13.27
2022-09-15T03:27:20.747Z,8.93
2022-09-15T03:30:12.612Z,14.38
2022-09-15T03:33:03.120Z,11.20
2022-09-15T03:35:54.944Z,10.75
2022-09-15T03:38:47.127Z,12.43
2022-09-15T03:41:41.849Z,10.38
2022-09-15T03:44:33.322Z,8.88
2022-09-15T03:47:27.009Z,9.98
2022-09-15T03:50:21.008Z,16.83
2022-09-15T03:53:15.285Z,13.68
2022-09-15T03:56:10.315Z,6.80
2022-09-15T03:59:03.233Z,12.60
2022-09-15T04:01:54.381Z,16.75
2022-09-15T04:04:44.241Z,6.78
2022-09-15T04:07:36.952Z,8.52
2022-09-15T04:10:27.581Z,21.50
2022-09-15T04:13:19.467Z,8.18
2022-09-15T04:16:14.843Z,10.25
2022-09-15T04:19:06.133Z,6.35
2022-09-15T04:21:57.547Z,7.63
2022-09-15T04:24:58.227Z,4.40
2022-09-15T04:28:11.855Z,14.10
2022-09-15T04:31:13.143Z,9.38
2022-09-15T04:34:04.339Z,4.78
2022-09-15T04:36:54.511Z,5.60
2022-09-15T04:39:47.648Z,9.07
2022-09-15T04:42:38.606Z,6.80
2022-09-15T04:45:29.009Z,8.68
2022-09-15T04:48:19.387Z,8.27
2022-09-15T04:51:26.394Z,10.80
2022-09-15T04:54:17.366Z,8.50
2022-09-15T04:57:11.214Z,6.60
2022-09-15T05:00:05.185Z,7.90
2022-09-15T05:02:56.214Z,9.82
2022-09-15T05:05:51.402Z,19.75
2022-09-15T05:08:42.242Z,10.55
2022-09-15T05:11:34.272Z,8.48
2022-09-15T05:14:24.646Z,13.93
2022-09-15T05:17:15.432Z,7.70
2022-09-15T05:20:07.091Z,9.13
2022-09-15T05:22:56.894Z,11.65
2022-09-15T05:26:06.529Z,9.07
2022-09-15T05:28:59.516Z,9.07
2022-09-15T05:31:50.078Z,6.38
2022-09-15T05:34:42.683Z,10.90
2022-09-15T05:37:33.313Z,12.73
2022-09-15T05:40:25.181Z,9.68
2022-09-15T05:43:15.961Z,9.70
2022-09-15T05:46:12.312Z,13.48
2022-09-15T05:49:02.897Z,12.60
2022-09-15T05:51:53.878Z,12.18
2022-09-15T05:54:44.818Z,10.52
2022-09-15T05:57:36.137Z,11.30
2022-09-15T06:00:26.592Z,9.23
2022-09-15T06:03:18.737Z,10.02
2022-09-15T06:06:09.975Z,8.63
2022-09-15T06:09:01.962Z,12.98
2022-09-15T06:11:53.724Z,17.58
2022-09-15T06:14:45.977Z,9.50
2022-09-15T06:17:40.715Z,20.27
2022-09-15T06:20:32.158Z,12.50
2022-09-15T06:23:23.251Z,10.38
2022-09-15T06:26:20.869Z,15.50
2022-09-15T06:29:17.785Z,18.60
2022-09-15T06:32:09.227Z,12.40
2022-09-15T06:34:59.549Z,16.85
2022-09-15T06:37:52.511Z,15.38
2022-09-15T06:40:43.591Z,13.43
2022-09-15T06:43:39.377Z,18.15
2022-09-15T06:46:30.387Z,19.48
2022-09-15T06:49:27.353Z,10.25
2022-09-15T06:52:18.962Z,14.70
2022-09-15T06:55:10.177Z,11.10
2022-09-15T06:58:00.394Z,14.00
2022-09-15T07:00:51.624Z,12.93
2022-09-15T07:03:45.440Z,20.52
2022-09-15T07:06:36.916Z,14.77
2022-09-15T07:09:28.315Z,11.73
2022-09-15T07:12:18.887Z,19.17
2022-09-15T07:15:11.007Z,13.60
2022-09-15T07:18:02.106Z,12.00
2022-09-15T07:20:53.210Z,18.98
2022-09-15T07:23:43.965Z,15.10
2022-09-15T07:26:36.845Z,15.60
2022-09-15T07:29:28.780Z,17.35
2022-09-15T07:32:19.356Z,16.17
2022-09-15T07:35:10.180Z,17.02
2022-09-15T07:38:01.981Z,19.48
2022-09-15T07:40:53.793Z,17.33
2022-09-15T07:43:49.027Z,21.40
2022-09-15T07:46:40.997Z,17.58
2022-09-15T07:49:32.566Z,15.30
2022-09-15T07:52:23.296Z,16.02
2022-09-15T07:55:13.878Z,18.75
2022-09-15T07:58:05.786Z,15.95
2022-09-15T08:00:56.643Z,20.67
2022-09-15T08:03:50.466Z,17.33
2022-09-15T08:06:40.591Z,11.35
2022-09-15T08:09:31.151Z,15.75
2022-09-15T08:12:21.994Z,18.58
2022-09-15T08:15:12.227Z,24.42
2022-09-15T08:18:02.533Z,25.50
2022-09-15T08:20:56.264Z,23.90
2022-09-15T08:23:48.834Z,23.20
2022-09-15T08:26:41.069Z,19.38
2022-09-15T08:29:31.375Z,23.88
2022-09-15T08:32:22.517Z,25.48
2022-09-15T08:35:13.782Z,22.63
2022-09-15T08:38:04.233Z,34.80
2022-09-15T08:41:00.300Z,20.60
2022-09-15T08:44:27.178Z,35.25
2022-09-15T08:47:24.073Z,31.85
2022-09-15T08:50:32.850Z,26.80
2022-09-15T08:53:32.512Z,26.05
2022-09-15T08:56:23.718Z,35.90
2022-09-15T08:59:18.050Z,26.05
2022-09-15T09:02:32.067Z,28.63
2022-09-15T09:05:30.948Z,27.23
2022-09-15T09:08:49.516Z,32.72
2022-09-15T09:12:01.777Z,40.35
2022-09-15T09:15:13.829Z,27.92
2022-09-15T09:18:29.944Z,33.38
2022-09-15T09:21:34.107Z,22.55
2022-09-15T09:24:37.003Z,28.60
2022-09-15T09:30:38.645Z,37.08
2022-09-15T09:33:45.102Z,23.88
2022-09-15T09:36:38.250Z,25.33
2022-09-15T09:39:32.028Z,23.80
2022-09-15T09:42:23.464Z,31.98
2022-09-15T09:45:17.731Z,24.02
2022-09-15T09:48:22.255Z,22.92
2022-09-15T09:51:55.983Z,21.48
2022-09-15T09:54:47.131Z,17.92
2022-09-15T09:57:40.787Z,18.48
2022-09-15T10:00:44.546Z,25.25
2022-09-15T10:03:36.163Z,36.25
2022-09-15T10:06:30.191Z,21.13
2022-09-15T10:09:24.087Z,23.58
2022-09-15T10:12:24.933Z,25.27
2022-09-15T10:15:27.668Z,21.63
2022-09-15T10:18:38.962Z,22.08
2022-09-15T10:21:30.078Z,21.10
2022-09-15T10:24:46.904Z,21.38
2022-09-15T10:27:40.345Z,25.20
2022-09-15T10:30:30.776Z,25.98
2022-09-15T10:33:38.654Z,17.65
2022-09-15T10:36:35.070Z,18.70
2022-09-15T10:39:48.586Z,18.75
2022-09-15T10:43:21.621Z,17.73
2022-09-15T10:46:40.851Z,16.73
2022-09-15T10:50:07.673Z,19.60
2022-09-15T10:53:27.760Z,21.23
2022-09-15T10:56:30.358Z,22.45
2022-09-15T10:59:27.485Z,15.75
2022-09-15T11:02:39.078Z,17.80
2022-09-15T11:06:09.082Z,17.25
2022-09-15T11:09:30.342Z,21.67
2022-09-15T11:12:43.070Z,17.35
2022-09-15T11:15:47.557Z,17.10
2022-09-15T11:18:40.623Z,20.38
2022-09-15T11:21:49.074Z,20.45
2022-09-15T11:24:43.802Z,12.52
2022-09-15T11:27:51.523Z,13.18
2022-09-15T11:30:58.554Z,9.63
2022-09-15T11:34:10.383Z,21.38
2022-09-15T11:37:06.580Z,14.07
2022-09-15T11:40:11.822Z,16.85
2022-09-15T11:43:33.532Z,27.48
2022-09-15T11:46:53.303Z,16.85
2022-09-15T11:50:03.635Z,11.95
2022-09-15T11:53:14.267Z,14.43
2022-09-15T11:56:25.823Z,11.70
2022-09-15T11:59:29.172Z,17.88
2022-09-15T12:02:29.115Z,15.75
2022-09-15T12:05:23.185Z,18.58
2022-09-15T12:08:21.392Z,13.52
2022-09-15T12:11:23.498Z,14.30
2022-09-15T12:14:39.135Z,18.70
2022-09-15T12:18:01.327Z,19.27
2022-09-15T12:21:21.402Z,17.50
2022-09-15T12:24:15.320Z,20.63
2022-09-15T12:27:07.703Z,16.98
2022-09-15T12:30:02.086Z,17.27
2022-09-15T12:32:55.676Z,19.52
2022-09-15T12:35:46.403Z,19.80
2022-09-15T12:38:38.174Z,20.50
2022-09-15T12:41:30.620Z,16.63
2022-09-15T12:44:37.642Z,17.15
2022-09-15T12:47:36.606Z,18.27
2022-09-15T12:50:39.887Z,18.77
2022-09-15T12:54:06.168Z,14.60
2022-09-15T12:56:59.796Z,12.90
2022-09-15T12:59:52.236Z,13.13
2022-09-15T13:02:56.773Z,16.90
2022-09-15T13:05:49.810Z,18.70
2022-09-15T13:08:51.535Z,12.55
2022-09-15T13:14:59.676Z,10.80
2022-09-15T13:17:51.891Z,11.32
2022-09-15T13:20:57.339Z,12.77
2022-09-15T13:23:53.904Z,11.32
2022-09-15T13:26:46.948Z,16.77
2022-09-15T13:29:56.236Z,20.13
2022-09-15T13:32:54.312Z,13.07
2022-09-15T13:36:03.634Z,15.63
2022-09-15T13:39:11.080Z,14.43
2022-09-15T13:42:34.499Z,20.10
2022-09-15T13:49:21.057Z,16.60
2022-09-15T13:52:23.256Z,15.40
2022-09-15T13:55:32.016Z,14.77
2022-09-15T14:01:44.327Z,14.60
2022-09-15T14:04:36.009Z,12.38
2022-09-15T14:07:27.486Z,16.95
2022-09-15T14:10:31.303Z,11.32
2022-09-15T14:13:24.559Z,14.57
2022-09-15T14:16:37.296Z,15.38
2022-09-15T14:19:44.215Z,12.43
2022-09-15T14:22:46.442Z,16.95
2022-09-15T14:25:45.080Z,14.50
2022-09-15T14:28:35.186Z,14.93
2022-09-15T14:31:41.702Z,13.75
2022-09-15T14:34:34.916Z,14.43
2022-09-15T14:37:34.867Z,13.85
2022-09-15T14:40:36.257Z,13.60
2022-09-15T14:43:35.276Z,14.88
2022-09-15T14:46:32.454Z,13.32
2022-09-15T14:49:24.231Z,13.85
2022-09-15T14:52:35.696Z,9.27
2022-09-15T14:55:31.433Z,10.95
2022-09-15T14:58:22.243Z,10.93
2022-09-15T15:01:36.198Z,11.48
2022-09-15T15:04:45.112Z,9.90
2022-09-15T15:07:39.817Z,13.10
2022-09-15T15:10:36.058Z,10.50
2022-09-15T15:13:27.225Z,9.88
2022-09-15T15:16:24.076Z,10.85
2022-09-15T15:19:40.172Z,9.00
2022-09-15T15:22:32.043Z,7.35
2022-09-15T15:25:33.030Z,9.75
2022-09-15T15:28:41.174Z,11.45
2022-09-15T15:34:37.754Z,9.95
2022-09-15T15:37:35.256Z,9.43
2022-09-15T15:40:25.947Z,7.70
2022-09-15T15:43:29.857Z,13.13
2022-09-15T15:46:55.177Z,12.18
2022-09-15T15:50:11.701Z,11.55
2022-09-15T15:52:57.163Z,12.18
2022-09-15T15:55:50.170Z,14.35
2022-09-15T15:58:43.953Z,10.70
2022-09-15T16:01:35.533Z,10.63
2022-09-15T16:04:28.832Z,9.73
2022-09-15T16:07:21.180Z,12.40
2022-09-15T16:10:13.901Z,10.57
2022-09-15T16:13:05.116Z,11.13
2022-09-15T16:15:56.885Z,9.48
2022-09-15T16:18:47.320Z,10.73
2022-09-15T16:21:41.969Z,11.77
2022-09-15T16:24:37.065Z,11.50
2022-09-15T16:27:30.900Z,10.38
2022-09-15T16:30:22.740Z,12.48
2022-09-15T16:33:17.104Z,10.65
2022-09-15T16:36:13.857Z,11.05
2022-09-15T16:39:08.103Z,12.10
2022-09-15T16:42:01.639Z,11.95
2022-09-15T16:44:51.582Z,13.13
2022-09-15T16:47:44.012Z,13.38
2022-09-15T16:50:34.721Z,22.58
2022-09-15T16:53:25.406Z,13.27
2022-09-15T16:56:21.293Z,14.52
2022-09-15T16:59:12.695Z,15.65
2022-09-15T17:02:03.180Z,12.45
2022-09-15T17:04:56.949Z,14.18
2022-09-15T17:07:47.091Z,11.50
2022-09-15T17:10:37.918Z,17.23
2022-09-15T17:13:30.537Z,16.00
2022-09-15T17:16:22.281Z,12.70
2022-09-15T17:19:13.383Z,14.00
2022-09-15T17:22:05.019Z,12.60
2022-09-15T17:24:55.389Z,13.70
2022-09-15T17:27:46.608Z,17.05
2022-09-15T17:30:37.427Z,14.93
2022-09-15T17:33:28.811Z,14.93
2022-09-15T17:36:19.094Z,13.13
2022-09-15T17:39:10.059Z,19.80
2022-09-15T17:44:50.350Z,14.75
2022-09-15T17:47:40.544Z,14.02
2022-09-15T17:50:34.622Z,11.15
2022-09-15T17:53:28.277Z,14.48
2022-09-15T17:56:18.753Z,13.43
2022-09-15T17:59:10.872Z,14.50
2022-09-15T18:02:05.275Z,18.55
2022-09-15T18:04:55.734Z,15.48
2022-09-15T18:07:46.313Z,18.35
2022-09-15T18:10:38.640Z,18.67
2022-09-15T18:13:29.992Z,18.83
2022-09-15T18:16:20.098Z,22.35
2022-09-15T18:19:11.019Z,18.10
2022-09-15T18:22:05.387Z,15.65
2022-09-15T18:24:56.589Z,20.80
2022-09-15T18:27:48.145Z,19.30
2022-09-15T18:30:43.258Z,22.58
2022-09-15T18:33:33.608Z,23.77
2022-09-15T18:36:24.810Z,19.50
2022-09-15T18:39:14.892Z,26.30
2022-09-15T18:42:06.088Z,23.75
2022-09-15T18:44:56.357Z,17.95
2022-09-15T18:47:57.027Z,17.52
2022-09-15T18:50:49.031Z,15.73
2022-09-15T18:53:43.175Z,13.80
2022-09-15T18:56:33.415Z,15.70
2022-09-15T18:59:24.151Z,17.10
2022-09-15T19:02:15.945Z,13.63
2022-09-15T19:05:06.892Z,16.55
2022-09-15T19:07:58.331Z,11.88
2022-09-15T19:10:51.746Z,15.48
2022-09-15T19:13:42.267Z,15.18
2022-09-15T19:16:53.760Z,14.68
2022-09-15T19:19:44.952Z,14.05
2022-09-15T19:22:35.806Z,15.82
2022-09-15T19:25:26.406Z,14.35
2022-09-15T19:28:16.718Z,14.45
2022-09-15T19:31:11.489Z,13.63
2022-09-15T19:34:02.227Z,13.35
2022-09-15T19:36:52.143Z,13.30
2022-09-15T19:39:45.261Z,14.48
2022-09-15T19:42:35.891Z,16.70
2022-09-15T19:45:26.189Z,15.10
2022-09-15T19:48:16.801Z,17.63
2022-09-15T19:51:14.276Z,11.57
2022-09-15T19:54:06.939Z,13.90
2022-09-15T19:56:57.555Z,13.80
2022-09-15T19:59:47.889Z,15.55
2022-09-15T20:02:38.153Z,12.38
2022-09-15T20:05:28.690Z,15.75
2022-09-15T20:08:20.411Z,13.80
2022-09-15T20:11:11.234Z,12.93
2022-09-15T20:14:02.156Z,14.32
2022-09-15T20:16:55.142Z,13.48
2022-09-15T20:19:48.102Z,13.88
2022-09-15T20:22:39.284Z,16.98
2022-09-15T20:25:29.362Z,14.50
2022-09-15T20:28:20.302Z,18.73
2022-09-15T20:31:12.602Z,19.70
2022-09-15T20:34:05.624Z,16.05
2022-09-15T20:36:56.448Z,18.63
2022-09-15T20:39:54.213Z,16.45
2022-09-15T20:42:44.167Z,15.52
2022-09-15T20:45:37.187Z,17.65
2022-09-15T20:48:31.319Z,15.15
2022-09-15T20:51:27.072Z,16.27
2022-09-15T20:54:17.422Z,16.50
2022-09-15T20:57:07.844Z,18.13
2022-09-15T20:59:58.132Z,17.63
2022-09-15T21:02:53.702Z,19.50
2022-09-15T21:05:45.595Z,18.38
2022-09-15T21:08:36.577Z,17.50
2022-09-15T21:11:31.628Z,18.50
2022-09-15T21:14:22.072Z,18.98
2022-09-15T21:17:12.689Z,18.63
2022-09-15T21:20:02.797Z,22.10
2022-09-15T21:22:59.516Z,19.92
2022-09-15T21:25:49.593Z,24.23
2022-09-15T21:28:40.268Z,18.65
2022-09-15T21:31:35.085Z,22.50
2022-09-15T21:34:25.412Z,19.45
2022-09-15T21:37:16.284Z,23.38
2022-09-15T21:40:06.889Z,26.23
2022-09-15T21:42:57.532Z,25.40
2022-09-15T21:45:48.172Z,23.13
2022-09-15T21:48:38.646Z,25.20
2022-09-15T21:51:30.391Z,26.10
2022-09-15T21:54:24.312Z,28.70
2022-09-15T21:57:15.751Z,27.90
2022-09-15T22:00:07.829Z,26.50
2022-09-15T22:02:57.900Z,27.40
2022-09-15T22:05:49.719Z,24.88
2022-09-15T22:08:41.527Z,24.10
2022-09-15T22:11:32.517Z,28.10
2022-09-15T22:14:23.634Z,25.65
2022-09-15T22:17:14.021Z,30.95
2022-09-15T22:20:05.458Z,30.25
2022-09-15T22:22:57.530Z,26.02
2022-09-15T22:25:47.354Z,25.08
2022-09-15T22:28:38.017Z,28.77
2022-09-15T22:31:30.602Z,25.95
2022-09-15T22:34:21.162Z,28.10
2022-09-15T22:37:11.501Z,27.35
2022-09-15T22:40:02.095Z,21.42
2022-09-15T22:42:52.025Z,21.48
2022-09-15T22:45:42.456Z,23.10
2022-09-15T22:48:32.881Z,25.55
2022-09-15T22:51:22.761Z,23.02
2022-09-15T22:54:13.180Z,25.63
2022-09-15T22:57:03.472Z,30.15
2022-09-15T22:59:54.463Z,30.55
2022-09-15T23:02:46.292Z,19.92
2022-09-15T23:05:37.200Z,23.17
2022-09-15T23:08:28.389Z,25.70
2022-09-15T23:11:19.301Z,22.40
2022-09-15T23:14:16.544Z,24.23
2022-09-15T23:17:06.985Z,23.15
2022-09-15T23:19:57.029Z,23.10
2022-09-15T23:22:47.752Z,16.13
2022-09-15T23:25:40.559Z,15.80
2022-09-15T23:28:32.692Z,15.43
2022-09-15T23:31:23.123Z,11.85
2022-09-15T23:34:13.168Z,12.80
2022-09-15T23:37:04.421Z,9.68
2022-09-15T23:39:54.373Z,13.27
2022-09-15T23:42:44.526Z,13.30
2022-09-15T23:45:34.722Z,15.07
2022-09-15T23:48:24.900Z,20.10
2022-09-15T23:51:15.908Z,17.25
2022-09-15T23:54:06.322Z,21.65
2022-09-15T23:56:56.152Z,14.82
2022-09-15T23:59:46.978Z,14.57
